createdAt,value
2018-10-06T00:01:54.636Z,99680.41
2018-10-06T00:04:27.756Z,99704.86
2018-10-06T00:07:09.911Z,99706.86
2018-10-06T00:09:39.431Z,99710.04
2018-10-06T00:12:10.865Z,99708.02
2018-10-06T00:14:42.399Z,99708.94
2018-10-06T00:17:29.413Z,99707.61
2018-10-06T00:19:59.541Z,99706.93
2018-10-06T00:22:29.474Z,99712.64
2018-10-06T00:24:59.814Z,99705.38
2018-10-06T00:27:37.496Z,99700.37
2018-10-06T00:30:07.985Z,99701.17
2018-10-06T00:32:38.361Z,99699.36
2018-10-06T00:35:11.857Z,99695.46
2018-10-06T00:37:41.476Z,99692.65
2018-10-06T00:40:15.564Z,99690.53
2018-10-06T00:42:45.411Z,99684.73
2018-10-06T00:45:24.180Z,99683.05
2018-10-06T00:47:57.942Z,99684.85
2018-10-06T00:50:27.460Z,99681.39
2018-10-06T00:52:58.505Z,99690.36
2018-10-06T00:55:30.650Z,99672.87
2018-10-06T00:58:00.949Z,99674.27
2018-10-06T01:00:30.705Z,99644.14
2018-10-06T01:03:03.875Z,99665.89
2018-10-06T01:05:33.384Z,99657.91
2018-10-06T01:08:03.240Z,99659.22
2018-10-06T01:10:34.152Z,99659.25
2018-10-06T01:13:05.156Z,99619.46
2018-10-06T01:15:35.795Z,99656.92
2018-10-06T01:18:08.313Z,99654.95
2018-10-06T01:20:38.314Z,99651.48
2018-10-06T01:23:07.836Z,99649.22
2018-10-06T01:25:37.309Z,99649.16
2018-10-06T01:28:08.551Z,99651.28
2018-10-06T01:30:39.775Z,99636.20
2018-10-06T01:33:11.031Z,99637.18
2018-10-06T01:35:41.250Z,99640.64
2018-10-06T01:38:16.083Z,99631.56
2018-10-06T01:40:46.154Z,99636.66
2018-10-06T01:43:16.889Z,99632.03
2018-10-06T01:45:47.588Z,99636.31
2018-10-06T01:48:17.217Z,99629.52
2018-10-06T01:50:48.012Z,99629.15
2018-10-06T01:53:20.228Z,99551.98
2018-10-06T01:55:54.317Z,99623.03
2018-10-06T01:58:23.975Z,99616.89
2018-10-06T02:00:55.473Z,99623.23
2018-10-06T02:03:25.496Z,99624.42
2018-10-06T02:05:56.496Z,99614.23
2018-10-06T02:08:27.597Z,99614.61
2018-10-06T02:10:57.121Z,99611.95
2018-10-06T02:13:28.429Z,99618.50
2018-10-06T02:15:58.451Z,99617.07
2018-10-06T02:18:31.582Z,99612.61
2018-10-06T02:21:01.098Z,99606.80
2018-10-06T02:23:30.644Z,99605.02
2018-10-06T02:26:02.986Z,99597.92
2018-10-06T02:28:33.218Z,99599.89
2018-10-06T02:31:02.832Z,99591.48
2018-10-06T02:33:32.420Z,99625.45
2018-10-06T02:36:03.342Z,99600.16
2018-10-06T02:38:33.359Z,99598.38
2018-10-06T02:41:04.434Z,99587.27
2018-10-06T02:43:35.590Z,99594.31
2018-10-06T02:46:05.158Z,99591.23
2018-10-06T02:51:19.172Z,99595.66
2018-10-06T02:53:48.790Z,99603.42
2018-10-06T02:56:18.444Z,99596.16
2018-10-06T02:58:48.511Z,99601.24
2018-10-06T03:01:18.068Z,99591.30
2018-10-06T03:03:47.609Z,99589.99
2018-10-06T03:06:17.032Z,99589.81
2018-10-06T03:08:46.656Z,99575.66
2018-10-06T03:11:16.665Z,99574.15
2018-10-06T03:13:48.951Z,99586.23
2018-10-06T03:16:18.561Z,99581.07
2018-10-06T03:18:48.950Z,99577.45
2018-10-06T03:21:18.720Z,99574.15
2018-10-06T03:23:49.222Z,99577.36
2018-10-06T03:26:19.960Z,99580.73
2018-10-06T03:28:50.390Z,99571.88
2018-10-06T03:31:21.066Z,99577.28
2018-10-06T03:33:52.062Z,99572.77
2018-10-06T03:36:25.255Z,99568.11
2018-10-06T03:38:55.749Z,99567.18
2018-10-06T03:41:25.238Z,99564.63
2018-10-06T03:43:55.385Z,99566.07
2018-10-06T03:46:25.264Z,99563.28
2018-10-06T03:48:56.495Z,99552.94
2018-10-06T03:51:27.488Z,99554.05
2018-10-06T03:53:59.611Z,99555.52
2018-10-06T03:56:31.010Z,99552.65
2018-10-06T03:59:01.352Z,99543.46
2018-10-06T04:01:31.482Z,99541.44
2018-10-06T04:04:01.846Z,99544.44
2018-10-06T04:06:41.858Z,99546.82
2018-10-06T04:09:12.367Z,99436.95
2018-10-06T04:11:41.922Z,99543.55
2018-10-06T04:14:11.442Z,99545.31
2018-10-06T04:16:42.389Z,99548.22
2018-10-06T04:19:12.857Z,99546.46
2018-10-06T04:21:49.651Z,99544.00
2018-10-06T04:24:20.479Z,99545.55
2018-10-06T04:26:52.427Z,99547.30
2018-10-06T04:29:28.393Z,99541.28
2018-10-06T04:32:05.679Z,99543.04
2018-10-06T04:34:36.652Z,99521.47
2018-10-06T04:37:07.097Z,99529.83
2018-10-06T04:39:38.824Z,99530.14
2018-10-06T04:42:09.532Z,99528.37
2018-10-06T04:44:39.902Z,99529.13
2018-10-06T04:47:13.260Z,99533.02
2018-10-06T04:49:44.097Z,99526.62
2018-10-06T04:52:15.593Z,99525.14
2018-10-06T04:54:47.350Z,99512.91
2018-10-06T04:57:17.559Z,99522.50
2018-10-06T04:59:49.293Z,99518.78
2018-10-06T05:02:20.007Z,99521.16
2018-10-06T05:04:50.413Z,99524.17
2018-10-06T05:07:20.093Z,99522.51
2018-10-06T05:09:50.399Z,99529.77
2018-10-06T05:12:22.723Z,99530.38
2018-10-06T05:14:58.200Z,99527.47
2018-10-06T05:17:28.423Z,99530.48
2018-10-06T05:19:59.204Z,99529.27
2018-10-06T05:22:30.520Z,99539.59
2018-10-06T05:27:43.228Z,99546.95
2018-10-06T05:30:15.848Z,99542.28
2018-10-06T05:32:47.773Z,99543.84
2018-10-06T05:35:19.459Z,99546.94
2018-10-06T05:37:52.354Z,99543.50
2018-10-06T05:40:24.044Z,99555.67
2018-10-06T05:42:54.638Z,99554.06
2018-10-06T05:45:25.829Z,99555.32
2018-10-06T05:47:55.698Z,99554.78
2018-10-06T05:50:25.353Z,99559.44
2018-10-06T05:52:56.152Z,99563.05
2018-10-06T05:55:28.344Z,99558.92
2018-10-06T05:57:58.261Z,99566.77
2018-10-06T06:00:27.984Z,99560.42
2018-10-06T06:02:58.639Z,99551.41
2018-10-06T06:05:28.645Z,99560.36
2018-10-06T06:07:58.405Z,99560.10
2018-10-06T06:10:27.983Z,99556.86
2018-10-06T06:12:57.600Z,99556.81
2018-10-06T06:15:27.980Z,99554.79
2018-10-06T06:17:57.638Z,99557.78
2018-10-06T06:20:27.167Z,99551.67
2018-10-06T06:22:56.964Z,99550.66
2018-10-06T06:25:26.512Z,99550.89
2018-10-06T06:28:00.593Z,99557.22
2018-10-06T06:30:30.098Z,99557.67
2018-10-06T06:33:00.229Z,99552.55
2018-10-06T06:35:31.298Z,99550.89
2018-10-06T06:38:01.688Z,99548.02
2018-10-06T06:40:32.371Z,99540.28
2018-10-06T06:43:02.098Z,99539.39
2018-10-06T06:45:32.999Z,99539.98
2018-10-06T06:48:05.279Z,99539.11
2018-10-06T06:50:34.873Z,99541.34
2018-10-06T06:53:04.594Z,99541.41
2018-10-06T06:55:34.243Z,99545.70
2018-10-06T06:58:04.358Z,99542.97
2018-10-06T07:00:37.062Z,99545.16
2018-10-06T07:03:07.404Z,99539.03
2018-10-06T07:05:37.790Z,99535.48
2018-10-06T07:08:09.789Z,99535.54
2018-10-06T07:10:54.965Z,99532.19
2018-10-06T07:13:25.540Z,99530.60
2018-10-06T07:16:01.524Z,99539.58
2018-10-06T07:18:32.989Z,99540.52
2018-10-06T07:21:04.644Z,99540.11
2018-10-06T07:23:38.622Z,99537.14
2018-10-06T07:26:09.228Z,99534.80
2018-10-06T07:28:38.944Z,99531.48
2018-10-06T07:31:11.892Z,99529.55
2018-10-06T07:33:42.339Z,99521.50
2018-10-06T07:36:12.765Z,99523.88
2018-10-06T07:38:43.081Z,99531.11
2018-10-06T07:41:12.748Z,99530.80
2018-10-06T07:43:56.337Z,99534.97
2018-10-06T07:46:30.515Z,99531.62
2018-10-06T07:49:07.325Z,99529.80
2018-10-06T07:51:37.579Z,99532.05
2018-10-06T07:54:13.061Z,99535.24
2018-10-06T07:56:43.852Z,99543.29
2018-10-06T07:59:15.358Z,99544.83
2018-10-06T08:01:47.277Z,99542.50
2018-10-06T08:04:19.165Z,99542.39
2018-10-06T08:06:52.221Z,99544.91
2018-10-06T08:09:30.295Z,99537.94
2018-10-06T08:12:01.830Z,99544.81
2018-10-06T08:14:32.918Z,99550.77
2018-10-06T08:17:02.610Z,99558.81
2018-10-06T08:19:34.523Z,99566.50
2018-10-06T08:22:04.349Z,99561.76
2018-10-06T08:24:34.629Z,99559.18
2018-10-06T08:27:04.895Z,99552.77
2018-10-06T08:29:35.394Z,99556.23
2018-10-06T08:32:06.949Z,99548.66
2018-10-06T08:34:39.696Z,99547.04
2018-10-06T08:37:11.442Z,99530.94
2018-10-06T08:39:43.127Z,99529.22
2018-10-06T08:42:13.181Z,99514.06
2018-10-06T08:44:44.590Z,99528.73
2018-10-06T08:47:14.214Z,99530.51
2018-10-06T08:49:44.784Z,99514.41
2018-10-06T08:52:14.577Z,99521.06
2018-10-06T08:54:45.942Z,99427.88
2018-10-06T08:57:15.699Z,99506.71
2018-10-06T08:59:45.328Z,99509.05
2018-10-06T09:02:19.540Z,99504.74
2018-10-06T09:04:52.935Z,99518.17
2018-10-06T09:07:25.410Z,99511.42
2018-10-06T09:10:05.511Z,99510.28
2018-10-06T09:12:37.431Z,99506.41
2018-10-06T09:15:07.465Z,99500.08
2018-10-06T09:17:37.083Z,99495.47
2018-10-06T09:20:06.751Z,99495.18
2018-10-06T09:22:37.078Z,99487.73
2018-10-06T09:25:08.296Z,99473.24
2018-10-06T09:27:38.205Z,99477.52
2018-10-06T09:30:08.679Z,99482.86
2018-10-06T09:32:41.676Z,99475.55
2018-10-06T09:35:11.975Z,99444.13
2018-10-06T09:37:43.107Z,99462.02
2018-10-06T09:40:16.354Z,99463.67
2018-10-06T09:42:50.045Z,99459.05
2018-10-06T09:45:24.407Z,99449.29
2018-10-06T09:47:55.834Z,99448.25
2018-10-06T09:50:27.599Z,99445.22
2018-10-06T09:52:57.749Z,99434.31
2018-10-06T09:55:27.991Z,99436.77
2018-10-06T09:58:00.206Z,99440.57
2018-10-06T10:00:37.177Z,99438.14
2018-10-06T10:03:15.754Z,99432.62
2018-10-06T10:05:53.124Z,99432.86
2018-10-06T10:08:23.081Z,99438.47
2018-10-06T10:10:54.525Z,99432.56
2018-10-06T10:13:25.326Z,99428.11
2018-10-06T10:16:05.067Z,99435.53
2018-10-06T10:18:42.330Z,99421.66
2018-10-06T10:21:12.904Z,99429.03
2018-10-06T10:23:44.952Z,99419.25
2018-10-06T10:26:17.353Z,99420.34
2018-10-06T10:28:49.145Z,99398.14
2018-10-06T10:31:19.164Z,99411.88
2018-10-06T10:33:49.462Z,99402.67
2018-10-06T10:36:24.907Z,99405.83
2018-10-06T10:39:03.410Z,99407.95
2018-10-06T10:41:36.617Z,99404.52
2018-10-06T10:44:08.895Z,99405.39
2018-10-06T10:46:39.257Z,99408.97
2018-10-06T10:49:09.958Z,99404.44
2018-10-06T10:51:39.506Z,99405.48
2018-10-06T10:54:17.387Z,99396.66
2018-10-06T10:56:57.345Z,99396.81
2018-10-06T10:59:31.118Z,99398.26
2018-10-06T11:02:07.284Z,99400.73
2018-10-06T11:04:38.487Z,99378.42
2018-10-06T11:07:08.596Z,99379.56
2018-10-06T11:09:38.692Z,99381.16
2018-10-06T11:12:11.277Z,99368.64
2018-10-06T11:14:41.940Z,99372.52
2018-10-06T11:17:13.962Z,99345.86
2018-10-06T11:19:43.852Z,99354.98
2018-10-06T11:22:20.407Z,99350.05
2018-10-06T11:24:54.931Z,99348.46
2018-10-06T11:27:27.244Z,99346.05
2018-10-06T11:29:57.788Z,99334.45
2018-10-06T11:32:28.992Z,99310.34
2018-10-06T11:34:59.822Z,99341.67
2018-10-06T11:37:45.566Z,99338.65
2018-10-06T11:40:17.202Z,99332.88
2018-10-06T11:42:47.066Z,99334.56
2018-10-06T11:45:16.851Z,99332.85
2018-10-06T11:47:48.866Z,99325.45
2018-10-06T11:50:25.532Z,99323.30
2018-10-06T11:52:55.637Z,99312.70
2018-10-06T11:55:25.773Z,99315.11
2018-10-06T11:57:55.440Z,99307.99
2018-10-06T12:00:26.272Z,99307.68
2018-10-06T12:03:00.162Z,99301.88
2018-10-06T12:05:31.828Z,99298.81
2018-10-06T12:08:02.522Z,99289.16
2018-10-06T12:10:32.138Z,99283.05
2018-10-06T12:13:02.395Z,99273.67
2018-10-06T12:15:33.486Z,99270.25
2018-10-06T12:18:05.241Z,99270.03
2018-10-06T12:20:38.920Z,99262.53
2018-10-06T12:23:09.779Z,99272.55
2018-10-06T12:25:39.508Z,99265.27
2018-10-06T12:28:10.652Z,99261.67
2018-10-06T12:30:41.864Z,99264.04
2018-10-06T12:33:12.382Z,99258.64
2018-10-06T12:35:43.313Z,99260.11
2018-10-06T12:38:14.101Z,99256.66
2018-10-06T12:40:44.401Z,99257.00
2018-10-06T12:43:15.639Z,99257.47
2018-10-06T12:45:45.372Z,99250.66
2018-10-06T12:48:15.915Z,99248.52
2018-10-06T12:50:46.558Z,99257.59
2018-10-06T12:53:16.718Z,99245.98
2018-10-06T12:55:48.483Z,99243.80
2018-10-06T12:58:18.257Z,99246.57
2018-10-06T13:00:51.037Z,99245.27
2018-10-06T13:03:20.659Z,99228.78
2018-10-06T13:05:50.309Z,99244.74
2018-10-06T13:08:21.191Z,99237.80
2018-10-06T13:10:50.768Z,99234.55
2018-10-06T13:13:21.708Z,99231.50
2018-10-06T13:15:52.266Z,99229.92
2018-10-06T13:18:22.614Z,99231.55
2018-10-06T13:20:52.857Z,99207.22
2018-10-06T13:23:24.590Z,99203.80
2018-10-06T13:25:57.706Z,99214.54
2018-10-06T13:28:33.521Z,99210.38
2018-10-06T13:31:03.288Z,99211.66
2018-10-06T13:33:32.904Z,99208.76
2018-10-06T13:36:05.848Z,99214.63
2018-10-06T13:38:35.507Z,99206.09
2018-10-06T13:41:05.243Z,99206.53
2018-10-06T13:43:34.968Z,99127.62
2018-10-06T13:46:05.351Z,99170.27
2018-10-06T13:48:36.415Z,99199.34
2018-10-06T13:51:06.937Z,99203.02
2018-10-06T13:53:37.604Z,99203.77
2018-10-06T13:56:07.253Z,99202.70
2018-10-06T13:58:36.877Z,99182.25
2018-10-06T14:01:07.435Z,99194.75
2018-10-06T14:06:07.385Z,99194.70
2018-10-06T14:08:37.708Z,99188.31
2018-10-06T14:11:10.343Z,99186.06
2018-10-06T14:13:40.935Z,99181.02
2018-10-06T14:16:14.358Z,99180.38
2018-10-06T14:18:45.472Z,99178.98
2018-10-06T14:21:15.189Z,99172.44
2018-10-06T14:23:44.688Z,99172.02
2018-10-06T14:26:14.811Z,99166.05
2018-10-06T14:28:48.706Z,99173.88
2018-10-06T14:31:18.403Z,99161.34
2018-10-06T14:33:49.291Z,99158.59
2018-10-06T14:36:21.147Z,99154.45
2018-10-06T14:38:52.951Z,99155.15
2018-10-06T14:41:25.224Z,99153.66
2018-10-06T14:43:55.443Z,99157.07
2018-10-06T14:46:26.899Z,99152.78
2018-10-06T14:48:58.764Z,99162.56
2018-10-06T14:51:32.511Z,99061.70
2018-10-06T14:54:04.302Z,99156.34
2018-10-06T14:56:36.384Z,99152.62
2018-10-06T14:59:07.301Z,99146.50
2018-10-06T15:01:37.992Z,99144.49
2018-10-06T15:04:09.799Z,99147.46
2018-10-06T15:06:43.223Z,99143.64
2018-10-06T15:09:13.853Z,99151.12
2018-10-06T15:11:45.133Z,99144.11
2018-10-06T15:14:17.374Z,99135.60
2018-10-06T15:16:47.383Z,99136.02
2018-10-06T15:19:18.229Z,99145.57
2018-10-06T15:21:47.983Z,99137.97
2018-10-06T15:24:21.914Z,99136.70
2018-10-06T15:26:52.536Z,99125.33
2018-10-06T15:29:23.056Z,99131.64
2018-10-06T15:31:54.654Z,99148.61
2018-10-06T15:34:24.320Z,99135.23
2018-10-06T15:36:54.289Z,99130.64
2018-10-06T15:39:24.868Z,99122.66
2018-10-06T15:41:55.048Z,99119.96
2018-10-06T15:44:32.689Z,99116.41
2018-10-06T15:47:05.481Z,99122.36
2018-10-06T15:49:36.071Z,99121.62
2018-10-06T15:52:08.585Z,99116.44
2018-10-06T15:54:38.428Z,99118.83
2018-10-06T15:57:15.274Z,99122.91
2018-10-06T15:59:45.323Z,99123.11
2018-10-06T16:02:15.623Z,99125.42
2018-10-06T16:04:45.431Z,99121.00
2018-10-06T16:07:17.651Z,99119.58
2018-10-06T16:09:52.578Z,99116.33
2018-10-06T16:12:23.316Z,99118.45
2018-10-06T16:14:53.492Z,99104.13
2018-10-06T16:17:27.114Z,99117.87
2018-10-06T16:19:59.777Z,99115.33
2018-10-06T16:22:30.458Z,99114.17
2018-10-06T16:25:04.603Z,99116.31
2018-10-06T16:27:37.707Z,99118.66
2018-10-06T16:30:12.586Z,99117.50
2018-10-06T16:32:44.560Z,99116.48
2018-10-06T16:35:14.281Z,99116.13
2018-10-06T16:37:45.524Z,99113.92
2018-10-06T16:40:16.111Z,99109.59
2018-10-06T16:42:46.369Z,99107.41
2018-10-06T16:45:16.943Z,99112.29
2018-10-06T16:47:46.755Z,99106.31
2018-10-06T16:50:17.667Z,99110.88
2018-10-06T16:52:47.774Z,99102.43
2018-10-06T16:55:19.525Z,99105.58
2018-10-06T16:57:49.401Z,99106.17
2018-10-06T17:00:21.982Z,99110.19
2018-10-06T17:02:52.696Z,99099.22
2018-10-06T17:05:22.455Z,99103.41
2018-10-06T17:07:52.150Z,99108.22
2018-10-06T17:10:23.308Z,99098.16
2018-10-06T17:12:54.779Z,99104.14
2018-10-06T17:15:26.318Z,99103.16
2018-10-06T17:17:57.807Z,99106.12
2018-10-06T17:20:29.390Z,99106.81
2018-10-06T17:22:59.889Z,99107.25
2018-10-06T17:25:29.514Z,99105.70
2018-10-06T17:28:00.221Z,99103.14
2018-10-06T17:30:30.440Z,99110.25
2018-10-06T17:33:00.970Z,99109.13
2018-10-06T17:35:31.899Z,99111.28
2018-10-06T17:38:01.538Z,99112.38
2018-10-06T17:40:31.879Z,99113.74
2018-10-06T17:43:02.677Z,99125.01
2018-10-06T17:45:32.622Z,99115.60
2018-10-06T17:48:03.196Z,99117.95
2018-10-06T17:50:36.078Z,99122.13
2018-10-06T17:53:06.627Z,99122.30
2018-10-06T17:55:36.255Z,99125.91
2018-10-06T17:58:05.923Z,99123.05
2018-10-06T18:00:39.345Z,99124.77
2018-10-06T18:03:11.728Z,99120.45
2018-10-06T18:05:45.316Z,99113.93
2018-10-06T18:08:19.677Z,99117.77
2018-10-06T18:10:51.255Z,99125.58
2018-10-06T18:13:23.113Z,99128.84
2018-10-06T18:15:52.871Z,99124.55
2018-10-06T18:18:22.610Z,99132.37
2018-10-06T18:20:53.156Z,99127.77
2018-10-06T18:23:23.463Z,99127.52
2018-10-06T18:25:53.850Z,99046.45
2018-10-06T18:28:26.509Z,99130.53
2018-10-06T18:30:56.658Z,99133.02
2018-10-06T18:33:29.126Z,99128.16
2018-10-06T18:35:58.757Z,99133.92
2018-10-06T18:38:30.677Z,99129.83
2018-10-06T18:41:01.882Z,99132.21
2018-10-06T18:43:31.692Z,99137.05
2018-10-06T18:46:02.817Z,99128.55
2018-10-06T18:48:34.420Z,99136.77
2018-10-06T18:51:08.648Z,99131.30
2018-10-06T18:53:40.359Z,99136.59
2018-10-06T18:56:14.243Z,99138.02
2018-10-06T18:58:45.390Z,99139.52
2018-10-06T19:01:15.904Z,99144.73
2018-10-06T19:03:46.095Z,99149.84
2018-10-06T19:06:16.643Z,99150.65
2018-10-06T19:08:46.742Z,99157.80
2018-10-06T19:11:17.685Z,99097.61
2018-10-06T19:13:48.146Z,99071.17
2018-10-06T19:16:19.724Z,99154.46
2018-10-06T19:18:52.172Z,99146.33
2018-10-06T19:21:21.877Z,99154.72
2018-10-06T19:23:53.491Z,99154.26
2018-10-06T19:26:23.257Z,99152.89
2018-10-06T19:28:54.944Z,99123.17
2018-10-06T19:31:28.456Z,99148.49
2018-10-06T19:34:02.152Z,99153.98
2018-10-06T19:36:34.442Z,99154.81
2018-10-06T19:39:05.484Z,99152.36
2018-10-06T19:41:36.530Z,99160.79
2018-10-06T19:44:08.656Z,99148.79
2018-10-06T19:46:43.832Z,99145.25
2018-10-06T19:49:15.716Z,99147.44
2018-10-06T19:51:48.037Z,99147.19
2018-10-06T19:54:21.264Z,99149.91
2018-10-06T19:56:54.479Z,99051.53
2018-10-06T19:59:25.212Z,99153.98
2018-10-06T20:02:05.274Z,99155.28
2018-10-06T20:04:36.660Z,99151.20
2018-10-06T20:07:07.407Z,99162.09
2018-10-06T20:09:39.858Z,99166.66
2018-10-06T20:12:10.479Z,99161.26
2018-10-06T20:14:42.527Z,99165.06
2018-10-06T20:17:13.592Z,99165.88
2018-10-06T20:19:44.609Z,99172.08
2018-10-06T20:22:14.307Z,99172.56
2018-10-06T20:24:46.596Z,99175.59
2018-10-06T20:27:18.308Z,99167.41
2018-10-06T20:29:48.906Z,99173.25
2018-10-06T20:32:22.046Z,99171.89
2018-10-06T20:34:53.308Z,99171.89
2018-10-06T20:37:24.257Z,99168.38
2018-10-06T20:39:54.291Z,99172.95
2018-10-06T20:42:25.423Z,99174.72
2018-10-06T20:44:56.000Z,99178.47
2018-10-06T20:47:28.288Z,99177.65
2018-10-06T20:49:58.333Z,99180.91
2018-10-06T20:52:29.232Z,99174.38
2018-10-06T20:55:01.194Z,99180.84
2018-10-06T20:57:31.874Z,99176.14
2018-10-06T21:00:03.856Z,99180.08
2018-10-06T21:02:35.631Z,99180.94
2018-10-06T21:05:05.365Z,99171.91
2018-10-06T21:07:36.770Z,99172.09
2018-10-06T21:10:08.013Z,99167.45
2018-10-06T21:12:37.662Z,99166.09
2018-10-06T21:15:08.295Z,99167.68
2018-10-06T21:17:38.114Z,99170.15
2018-10-06T21:20:08.722Z,99164.98
2018-10-06T21:22:38.315Z,99174.83
2018-10-06T21:25:09.241Z,99170.22
2018-10-06T21:27:41.437Z,99162.11
2018-10-06T21:30:14.406Z,99165.94
2018-10-06T21:32:44.946Z,99171.14
2018-10-06T21:35:14.747Z,99169.62
2018-10-06T21:37:45.313Z,99167.19
2018-10-06T21:40:16.007Z,99167.02
2018-10-06T21:42:46.649Z,99165.09
2018-10-06T21:45:19.311Z,99172.06
2018-10-06T21:47:50.809Z,99168.93
2018-10-06T21:50:20.958Z,99170.05
2018-10-06T21:52:51.393Z,99166.19
2018-10-06T21:55:24.560Z,99169.22
2018-10-06T21:57:56.037Z,99170.80
2018-10-06T22:00:26.982Z,99164.48
2018-10-06T22:02:57.264Z,99171.02
2018-10-06T22:05:27.894Z,99081.83
2018-10-06T22:07:58.829Z,99167.70
2018-10-06T22:10:30.695Z,99163.81
2018-10-06T22:13:00.379Z,99170.37
2018-10-06T22:15:31.632Z,99175.53
2018-10-06T22:18:03.990Z,99178.83
2018-10-06T22:20:33.737Z,99176.28
2018-10-06T22:23:06.828Z,99181.64
2018-10-06T22:25:36.443Z,99176.49
2018-10-06T22:28:06.148Z,99174.39
2018-10-06T22:30:36.680Z,99184.75
2018-10-06T22:33:06.276Z,99169.90
2018-10-06T22:35:37.272Z,99162.94
2018-10-06T22:38:12.638Z,99170.21
2018-10-06T22:40:42.377Z,99161.91
2018-10-06T22:43:11.968Z,99160.08
2018-10-06T22:45:41.695Z,99160.50
2018-10-06T22:48:11.201Z,99161.67
2018-10-06T22:50:42.811Z,99151.75
2018-10-06T22:53:12.429Z,99160.30
2018-10-06T22:55:46.769Z,99164.50
2018-10-06T22:58:17.592Z,99160.32
2018-10-06T23:00:50.420Z,99158.25
2018-10-06T23:03:20.166Z,99149.13
2018-10-06T23:05:49.828Z,99161.35
2018-10-06T23:08:20.115Z,99158.22
2018-10-06T23:10:49.843Z,99156.28
2018-10-06T23:13:27.283Z,99145.94
2018-10-06T23:15:59.697Z,99143.80
2018-10-06T23:18:29.607Z,99142.65
2018-10-06T23:21:01.971Z,99149.24
2018-10-06T23:23:39.128Z,99155.09
2018-10-06T23:26:08.690Z,99153.28
2018-10-06T23:28:38.491Z,99162.29
2018-10-06T23:31:08.023Z,99165.02
2018-10-06T23:33:37.598Z,99169.41
2018-10-06T23:36:15.804Z,99168.92
2018-10-06T23:38:46.660Z,99170.05
2018-10-06T23:41:16.279Z,99170.31
2018-10-06T23:43:45.811Z,99175.91
2018-10-06T23:46:15.432Z,99181.37
2018-10-06T23:48:45.028Z,99181.10
2018-10-06T23:51:14.513Z,99179.41
2018-10-06T23:53:44.219Z,99172.66
2018-10-06T23:56:13.781Z,99173.80
2018-10-06T23:58:45.004Z,99185.77
